createdAt,value
2023-03-17T00:02:48.029Z,6.43
2023-03-17T00:08:49.858Z,5.32
2023-03-17T00:14:51.609Z,6.80
2023-03-17T00:20:53.606Z,5.13
2023-03-17T00:26:55.438Z,6.55
2023-03-17T00:32:58.716Z,6.03
2023-03-17T00:39:03.125Z,6.78
2023-03-17T00:45:05.372Z,6.18
2023-03-17T00:51:08.664Z,6.38
2023-03-17T00:57:11.039Z,6.32
2023-03-17T01:03:13.614Z,8.10
2023-03-17T01:09:18.542Z,9.48
2023-03-17T01:15:22.690Z,6.95
2023-03-17T01:21:25.541Z,6.88
2023-03-17T01:27:27.377Z,6.03
2023-03-17T01:33:29.200Z,6.85
2023-03-17T01:39:31.095Z,6.72
2023-03-17T01:46:14.632Z,7.55
2023-03-17T01:52:20.689Z,6.72
2023-03-17T01:58:24.194Z,7.15
2023-03-17T02:04:26.937Z,7.97
2023-03-17T02:10:30.130Z,6.00
2023-03-17T02:16:32.828Z,9.18
2023-03-17T02:22:34.679Z,7.22
2023-03-17T02:28:36.537Z,9.00
2023-03-17T02:34:38.633Z,7.80
2023-03-17T02:40:40.648Z,9.38
2023-03-17T02:46:42.660Z,9.48
2023-03-17T02:52:44.506Z,11.15
2023-03-17T02:58:46.461Z,8.40
2023-03-17T03:04:48.891Z,9.82
2023-03-17T03:10:50.888Z,10.00
2023-03-17T03:16:52.740Z,9.13
2023-03-17T03:22:54.579Z,7.82
2023-03-17T03:28:58.462Z,8.55
2023-03-17T03:35:00.350Z,8.50
2023-03-17T03:41:02.184Z,9.30
2023-03-17T03:47:04.402Z,15.30
2023-03-17T03:53:06.177Z,9.27
2023-03-17T03:59:08.646Z,7.60
2023-03-17T04:05:10.762Z,9.32
2023-03-17T04:11:12.687Z,9.98
2023-03-17T04:17:14.805Z,8.07
2023-03-17T04:23:16.628Z,9.65
2023-03-17T04:29:19.085Z,9.48
2023-03-17T04:35:22.518Z,8.65
2023-03-17T04:41:24.370Z,9.82
2023-03-17T04:47:26.222Z,8.70
2023-03-17T04:53:28.552Z,10.40
2023-03-17T04:59:30.336Z,9.88
2023-03-17T05:05:32.793Z,9.73
2023-03-17T05:11:34.547Z,9.80
2023-03-17T05:17:36.370Z,9.13
2023-03-17T05:23:38.238Z,8.27
2023-03-17T05:29:40.126Z,8.73
2023-03-17T05:35:42.091Z,10.10
2023-03-17T05:41:43.875Z,7.38
2023-03-17T05:47:48.245Z,9.32
2023-03-17T05:53:50.032Z,10.18
2023-03-17T05:59:51.861Z,11.60
2023-03-17T06:05:53.638Z,14.88
2023-03-17T06:11:55.459Z,11.35
2023-03-17T06:17:57.247Z,10.38
2023-03-17T06:23:59.045Z,9.63
2023-03-17T06:30:01.098Z,7.50
2023-03-17T06:36:03.272Z,9.85
2023-03-17T06:42:06.391Z,9.70
2023-03-17T06:48:08.226Z,8.45
2023-03-17T06:54:10.002Z,9.05
2023-03-17T07:00:14.227Z,10.48
2023-03-17T07:06:16.365Z,9.40
2023-03-17T07:12:18.676Z,7.55
2023-03-17T07:18:20.537Z,5.85
2023-03-17T07:24:23.008Z,9.02
2023-03-17T07:30:24.850Z,6.50
2023-03-17T07:36:27.407Z,7.63
2023-03-17T07:42:30.158Z,11.02
2023-03-17T07:48:33.297Z,7.65
2023-03-17T07:54:36.258Z,11.25
2023-03-17T08:00:40.266Z,8.00
2023-03-17T08:06:42.753Z,7.43
2023-03-17T08:12:44.609Z,6.97
2023-03-17T08:18:46.692Z,9.00
2023-03-17T08:24:48.898Z,9.88
2023-03-17T08:30:50.947Z,6.10
2023-03-17T08:36:53.190Z,7.93
2023-03-17T08:42:55.027Z,6.10
2023-03-17T08:48:59.094Z,9.65
2023-03-17T08:55:01.002Z,7.40
2023-03-17T09:01:04.439Z,6.40
2023-03-17T09:07:09.535Z,5.63
2023-03-17T09:13:11.977Z,5.57
2023-03-17T09:19:13.764Z,4.57
2023-03-17T09:25:16.303Z,5.03
2023-03-17T09:31:18.662Z,5.03
2023-03-17T09:37:20.415Z,4.20
2023-03-17T09:43:54.551Z,5.45
2023-03-17T09:50:00.146Z,6.13
2023-03-17T09:56:29.981Z,5.75
2023-03-17T10:02:37.611Z,5.25
2023-03-17T10:08:48.597Z,5.85
2023-03-17T10:15:30.553Z,7.05
2023-03-17T10:21:35.437Z,4.85
2023-03-17T10:27:38.507Z,9.13
2023-03-17T10:33:40.436Z,4.43
2023-03-17T10:39:48.508Z,5.50
2023-03-17T10:46:27.108Z,4.07
2023-03-17T10:58:45.101Z,4.22
2023-03-17T11:04:53.083Z,5.78
2023-03-17T11:10:56.689Z,4.78
2023-03-17T11:17:01.048Z,3.88
2023-03-17T11:23:22.390Z,3.58
2023-03-17T11:29:37.477Z,4.80
2023-03-17T11:35:46.059Z,4.82
2023-03-17T11:41:51.012Z,3.03
2023-03-17T11:48:31.788Z,4.25
2023-03-17T11:55:07.841Z,3.72
2023-03-17T12:01:18.003Z,2.42
2023-03-17T12:07:30.365Z,4.70
2023-03-17T12:13:32.567Z,3.67
2023-03-17T12:19:53.890Z,3.67
2023-03-17T12:26:07.797Z,4.75
2023-03-17T12:32:18.258Z,4.03
2023-03-17T12:38:36.313Z,5.20
2023-03-17T12:44:57.616Z,3.13
2023-03-17T12:51:06.610Z,3.40
2023-03-17T12:57:21.415Z,4.07
2023-03-17T13:03:26.606Z,3.35
2023-03-17T13:09:33.084Z,4.18
2023-03-17T13:15:36.097Z,3.80
2023-03-17T13:21:39.045Z,2.65
2023-03-17T13:27:43.850Z,5.03
2023-03-17T13:33:52.062Z,3.13
2023-03-17T13:39:56.834Z,2.47
2023-03-17T13:46:25.584Z,3.95
2023-03-17T13:52:33.333Z,2.97
2023-03-17T13:58:48.951Z,3.33
2023-03-17T14:04:58.115Z,4.35
2023-03-17T14:11:02.793Z,2.47
2023-03-17T14:17:16.448Z,7.05
2023-03-17T14:23:18.321Z,3.13
2023-03-17T14:29:25.356Z,3.45
2023-03-17T14:35:36.285Z,4.23
2023-03-17T14:41:38.110Z,4.25
2023-03-17T14:47:43.225Z,3.25
2023-03-17T14:53:46.541Z,3.60
2023-03-17T15:00:05.088Z,3.97
2023-03-17T15:06:28.145Z,3.33
2023-03-17T15:12:31.245Z,5.65
2023-03-17T15:18:33.298Z,3.67
2023-03-17T15:24:43.920Z,4.57
2023-03-17T15:30:55.053Z,4.30
2023-03-17T15:36:57.993Z,4.25
2023-03-17T15:43:00.601Z,5.47
2023-03-17T15:49:02.461Z,5.95
2023-03-17T15:55:14.680Z,3.42
2023-03-17T16:01:17.035Z,3.03
2023-03-17T16:07:19.468Z,2.53
2023-03-17T16:13:22.321Z,4.25
2023-03-17T16:19:24.816Z,4.30
2023-03-17T16:25:29.312Z,4.50
2023-03-17T16:31:31.182Z,3.55
2023-03-17T16:37:33.033Z,6.22
2023-03-17T16:43:39.948Z,6.85
2023-03-17T16:49:41.762Z,4.22
2023-03-17T16:55:45.024Z,4.00
2023-03-17T17:01:47.242Z,3.88
2023-03-17T17:07:49.920Z,4.28
2023-03-17T17:13:51.800Z,7.55
2023-03-17T17:19:53.654Z,3.53
2023-03-17T17:25:55.676Z,4.30
2023-03-17T17:32:03.047Z,4.10
2023-03-17T17:38:05.369Z,6.40
2023-03-17T17:44:07.624Z,8.32
2023-03-17T17:50:12.287Z,5.60
2023-03-17T17:56:17.811Z,5.28
2023-03-17T18:02:19.757Z,4.78
2023-03-17T18:08:22.339Z,6.22
2023-03-17T18:14:24.498Z,4.47
2023-03-17T18:20:30.380Z,4.05
2023-03-17T18:26:33.158Z,8.13
2023-03-17T18:32:35.366Z,6.25
2023-03-17T18:38:38.132Z,4.95
2023-03-17T18:44:40.056Z,8.43
2023-03-17T18:50:41.921Z,6.90
2023-03-17T18:56:43.704Z,5.88
2023-03-17T19:02:46.440Z,6.72
2023-03-17T19:08:48.507Z,5.15
2023-03-17T19:14:50.351Z,6.63
2023-03-17T19:20:52.521Z,3.85
2023-03-17T19:26:56.409Z,5.43
2023-03-17T19:32:58.244Z,5.65
2023-03-17T19:39:00.044Z,4.10
2023-03-17T19:45:02.065Z,4.75
2023-03-17T19:51:04.547Z,7.40
2023-03-17T19:57:06.379Z,4.43
2023-03-17T20:03:08.493Z,4.97
2023-03-17T20:09:10.252Z,4.85
2023-03-17T20:15:16.471Z,5.05
2023-03-17T20:21:18.366Z,4.55
2023-03-17T20:27:21.691Z,4.97
2023-03-17T20:33:24.484Z,7.53
2023-03-17T20:39:26.522Z,5.32
2023-03-17T20:45:28.490Z,5.07
2023-03-17T20:51:30.818Z,4.38
2023-03-17T20:57:33.358Z,5.57
2023-03-17T21:03:35.383Z,4.40
2023-03-17T21:09:37.117Z,6.25
2023-03-17T21:15:39.450Z,5.40
2023-03-17T21:21:41.290Z,3.47
2023-03-17T21:27:43.249Z,6.90
2023-03-17T21:33:48.382Z,3.65
2023-03-17T21:39:50.110Z,3.95
2023-03-17T21:45:51.982Z,7.22
2023-03-17T21:51:54.730Z,4.05
2023-03-17T21:57:56.494Z,6.10
2023-03-17T22:03:58.238Z,6.13
2023-03-17T22:10:01.162Z,5.75
2023-03-17T22:16:04.313Z,4.10
2023-03-17T22:22:06.381Z,5.18
2023-03-17T22:28:10.894Z,5.28
2023-03-17T22:34:12.681Z,5.65
2023-03-17T22:40:14.808Z,6.22
2023-03-17T22:46:17.814Z,4.82
2023-03-17T22:52:22.363Z,4.32
2023-03-17T22:58:24.519Z,6.65
2023-03-17T23:04:26.369Z,4.43
2023-03-17T23:10:28.557Z,6.55
2023-03-17T23:16:31.312Z,4.13
2023-03-17T23:22:33.147Z,4.45
2023-03-17T23:28:34.936Z,4.57
2023-03-17T23:34:37.056Z,7.75
2023-03-17T23:40:39.636Z,6.57
2023-03-17T23:46:41.377Z,5.07
2023-03-17T23:52:43.536Z,6.07
2023-03-17T23:58:45.838Z,6.63
